sensor_id;sensor_type;location;lat;lon;timestamp;P1;durP1;ratioP1;P2;durP2;ratioP2
40781;SDS011;26493;51.938;7.626;2023-12-20T00:01:37;13.90;;;9.60;;
40781;SDS011;26493;51.938;7.626;2023-12-20T00:04:03;13.90;;;9.50;;
40781;SDS011;26493;51.938;7.626;2023-12-20T00:06:29;13.65;;;8.88;;
40781;SDS011;26493;51.938;7.626;2023-12-20T00:08:55;13.57;;;8.77;;
40781;SDS011;26493;51.938;7.626;2023-12-20T00:11:22;14.32;;;9.25;;
40781;SDS011;26493;51.938;7.626;2023-12-20T00:13:49;13.73;;;8.77;;
40781;SDS011;26493;51.938;7.626;2023-12-20T00:16:15;13.77;;;8.93;;
40781;SDS011;26493;51.938;7.626;2023-12-20T00:18:41;14.25;;;8.82;;
40781;SDS011;26493;51.938;7.626;2023-12-20T00:21:07;13.48;;;8.43;;
40781;SDS011;26493;51.938;7.626;2023-12-20T00:23:33;14.65;;;10.23;;
40781;SDS011;26493;51.938;7.626;2023-12-20T00:25:59;13.25;;;8.00;;
40781;SDS011;26493;51.938;7.626;2023-12-20T00:28:25;33.58;;;8.00;;
40781;SDS011;26493;51.938;7.626;2023-12-20T00:30:51;12.38;;;7.40;;
40781;SDS011;26493;51.938;7.626;2023-12-20T00:33:17;12.23;;;7.47;;
40781;SDS011;26493;51.938;7.626;2023-12-20T00:35:43;11.30;;;6.65;;
40781;SDS011;26493;51.938;7.626;2023-12-20T00:38:09;11.75;;;6.85;;
40781;SDS011;26493;51.938;7.626;2023-12-20T00:40:36;10.90;;;6.40;;
40781;SDS011;26493;51.938;7.626;2023-12-20T00:43:02;10.80;;;6.40;;
40781;SDS011;26493;51.938;7.626;2023-12-20T00:45:28;10.50;;;6.20;;
40781;SDS011;26493;51.938;7.626;2023-12-20T00:47:54;11.20;;;6.60;;
40781;SDS011;26493;51.938;7.626;2023-12-20T00:50:20;11.35;;;6.43;;
40781;SDS011;26493;51.938;7.626;2023-12-20T00:52:46;10.93;;;6.38;;
40781;SDS011;26493;51.938;7.626;2023-12-20T00:55:12;10.75;;;6.30;;
40781;SDS011;26493;51.938;7.626;2023-12-20T00:57:39;11.07;;;6.50;;
40781;SDS011;26493;51.938;7.626;2023-12-20T01:00:05;10.73;;;6.30;;
40781;SDS011;26493;51.938;7.626;2023-12-20T01:02:31;11.73;;;7.20;;
40781;SDS011;26493;51.938;7.626;2023-12-20T01:04:57;10.65;;;6.20;;
40781;SDS011;26493;51.938;7.626;2023-12-20T01:07:23;9.43;;;5.60;;
40781;SDS011;26493;51.938;7.626;2023-12-20T01:09:49;10.13;;;5.80;;
40781;SDS011;26493;51.938;7.626;2023-12-20T01:12:15;10.20;;;5.80;;
40781;SDS011;26493;51.938;7.626;2023-12-20T01:14:41;8.68;;;5.10;;
40781;SDS011;26493;51.938;7.626;2023-12-20T01:17:07;8.10;;;4.80;;
40781;SDS011;26493;51.938;7.626;2023-12-20T01:19:33;7.80;;;4.60;;
40781;SDS011;26493;51.938;7.626;2023-12-20T01:21:59;7.57;;;4.53;;
40781;SDS011;26493;51.938;7.626;2023-12-20T01:24:25;8.00;;;4.60;;
40781;SDS011;26493;51.938;7.626;2023-12-20T01:26:51;8.27;;;4.72;;
40781;SDS011;26493;51.938;7.626;2023-12-20T01:29:17;9.43;;;4.78;;
40781;SDS011;26493;51.938;7.626;2023-12-20T01:31:43;12.38;;;7.15;;
40781;SDS011;26493;51.938;7.626;2023-12-20T01:34:09;7.60;;;4.40;;
40781;SDS011;26493;51.938;7.626;2023-12-20T01:36:35;9.25;;;5.10;;
40781;SDS011;26493;51.938;7.626;2023-12-20T01:39:01;7.40;;;4.40;;
40781;SDS011;26493;51.938;7.626;2023-12-20T01:41:27;9.02;;;4.97;;
40781;SDS011;26493;51.938;7.626;2023-12-20T01:43:53;8.65;;;5.65;;
40781;SDS011;26493;51.938;7.626;2023-12-20T01:46:19;8.70;;;4.75;;
40781;SDS011;26493;51.938;7.626;2023-12-20T01:48:46;7.70;;;4.70;;
40781;SDS011;26493;51.938;7.626;2023-12-20T01:51:12;7.82;;;4.50;;
40781;SDS011;26493;51.938;7.626;2023-12-20T01:53:38;8.13;;;4.72;;
40781;SDS011;26493;51.938;7.626;2023-12-20T01:56:05;9.35;;;5.35;;
40781;SDS011;26493;51.938;7.626;2023-12-20T01:58:31;7.20;;;4.30;;
40781;SDS011;26493;51.938;7.626;2023-12-20T02:00:57;7.13;;;4.32;;
40781;SDS011;26493;51.938;7.626;2023-12-20T02:03:23;10.40;;;5.45;;
40781;SDS011;26493;51.938;7.626;2023-12-20T02:05:50;13.98;;;6.55;;
40781;SDS011;26493;51.938;7.626;2023-12-20T02:08:16;8.70;;;5.03;;
40781;SDS011;26493;51.938;7.626;2023-12-20T02:10:42;8.85;;;5.50;;
40781;SDS011;26493;51.938;7.626;2023-12-20T02:13:08;9.35;;;5.15;;
40781;SDS011;26493;51.938;7.626;2023-12-20T02:15:34;11.25;;;6.00;;
40781;SDS011;26493;51.938;7.626;2023-12-20T02:18:02;13.20;;;6.45;;
40781;SDS011;26493;51.938;7.626;2023-12-20T02:20:28;7.03;;;4.05;;
40781;SDS011;26493;51.938;7.626;2023-12-20T02:22:54;11.25;;;5.70;;
40781;SDS011;26493;51.938;7.626;2023-12-20T02:25:20;10.05;;;5.82;;
40781;SDS011;26493;51.938;7.626;2023-12-20T02:27:46;9.93;;;5.40;;
40781;SDS011;26493;51.938;7.626;2023-12-20T02:30:13;8.73;;;4.82;;
40781;SDS011;26493;51.938;7.626;2023-12-20T02:32:39;8.68;;;5.00;;
40781;SDS011;26493;51.938;7.626;2023-12-20T02:35:05;6.80;;;3.90;;
40781;SDS011;26493;51.938;7.626;2023-12-20T02:37:32;6.53;;;3.90;;
40781;SDS011;26493;51.938;7.626;2023-12-20T02:39:58;12.48;;;4.57;;
40781;SDS011;26493;51.938;7.626;2023-12-20T02:42:24;6.63;;;3.90;;
40781;SDS011;26493;51.938;7.626;2023-12-20T02:44:50;7.28;;;4.45;;
40781;SDS011;26493;51.938;7.626;2023-12-20T02:47:16;6.22;;;3.70;;
40781;SDS011;26493;51.938;7.626;2023-12-20T02:49:42;7.38;;;3.90;;
40781;SDS011;26493;51.938;7.626;2023-12-20T02:52:08;9.57;;;4.30;;
40781;SDS011;26493;51.938;7.626;2023-12-20T02:54:34;8.57;;;4.25;;
40781;SDS011;26493;51.938;7.626;2023-12-20T02:57:00;8.40;;;4.40;;
40781;SDS011;26493;51.938;7.626;2023-12-20T02:59:26;15.68;;;4.72;;
40781;SDS011;26493;51.938;7.626;2023-12-20T03:01:52;6.40;;;3.65;;
40781;SDS011;26493;51.938;7.626;2023-12-20T03:04:18;9.50;;;6.43;;
40781;SDS011;26493;51.938;7.626;2023-12-20T03:06:44;7.97;;;4.07;;
40781;SDS011;26493;51.938;7.626;2023-12-20T03:09:10;6.78;;;3.75;;
40781;SDS011;26493;51.938;7.626;2023-12-20T03:11:36;6.30;;;3.70;;
40781;SDS011;26493;51.938;7.626;2023-12-20T03:14:02;10.63;;;5.57;;
40781;SDS011;26493;51.938;7.626;2023-12-20T03:16:28;7.93;;;3.92;;
40781;SDS011;26493;51.938;7.626;2023-12-20T03:18:54;10.35;;;4.45;;
40781;SDS011;26493;51.938;7.626;2023-12-20T03:21:20;6.35;;;3.90;;
40781;SDS011;26493;51.938;7.626;2023-12-20T03:23:46;6.00;;;3.50;;
40781;SDS011;26493;51.938;7.626;2023-12-20T03:26:12;12.35;;;4.45;;
40781;SDS011;26493;51.938;7.626;2023-12-20T03:28:38;10.43;;;4.85;;
40781;SDS011;26493;51.938;7.626;2023-12-20T03:31:04;12.98;;;4.70;;
40781;SDS011;26493;51.938;7.626;2023-12-20T03:33:30;6.57;;;3.55;;
40781;SDS011;26493;51.938;7.626;2023-12-20T03:35:56;6.93;;;4.13;;
40781;SDS011;26493;51.938;7.626;2023-12-20T03:38:22;9.13;;;4.35;;
40781;SDS011;26493;51.938;7.626;2023-12-20T03:40:51;14.05;;;5.80;;
40781;SDS011;26493;51.938;7.626;2023-12-20T03:43:17;5.57;;;3.28;;
40781;SDS011;26493;51.938;7.626;2023-12-20T03:45:43;12.60;;;5.63;;
40781;SDS011;26493;51.938;7.626;2023-12-20T03:48:09;6.80;;;3.72;;
40781;SDS011;26493;51.938;7.626;2023-12-20T03:50:35;22.55;;;6.57;;
40781;SDS011;26493;51.938;7.626;2023-12-20T03:53:01;6.07;;;3.50;;
40781;SDS011;26493;51.938;7.626;2023-12-20T03:55:28;9.00;;;4.10;;
40781;SDS011;26493;51.938;7.626;2023-12-20T03:57:54;16.92;;;5.40;;
40781;SDS011;26493;51.938;7.626;2023-12-20T04:00:20;7.10;;;3.85;;
40781;SDS011;26493;51.938;7.626;2023-12-20T04:02:46;5.90;;;3.33;;
40781;SDS011;26493;51.938;7.626;2023-12-20T04:05:12;14.00;;;4.35;;
40781;SDS011;26493;51.938;7.626;2023-12-20T04:07:38;9.68;;;4.05;;
40781;SDS011;26493;51.938;7.626;2023-12-20T04:10:05;12.75;;;4.15;;
40781;SDS011;26493;51.938;7.626;2023-12-20T04:12:31;15.70;;;5.20;;
40781;SDS011;26493;51.938;7.626;2023-12-20T04:14:57;9.73;;;5.05;;
40781;SDS011;26493;51.938;7.626;2023-12-20T04:17:23;9.00;;;4.32;;
40781;SDS011;26493;51.938;7.626;2023-12-20T04:19:49;6.55;;;3.67;;
40781;SDS011;26493;51.938;7.626;2023-12-20T04:22:16;7.47;;;4.00;;
40781;SDS011;26493;51.938;7.626;2023-12-20T04:24:42;6.18;;;3.40;;
40781;SDS011;26493;51.938;7.626;2023-12-20T04:27:09;12.88;;;4.68;;
40781;SDS011;26493;51.938;7.626;2023-12-20T04:29:35;6.55;;;3.55;;
40781;SDS011;26493;51.938;7.626;2023-12-20T04:32:01;11.90;;;5.20;;
40781;SDS011;26493;51.938;7.626;2023-12-20T04:34:27;8.85;;;3.92;;
40781;SDS011;26493;51.938;7.626;2023-12-20T04:36:53;10.68;;;4.03;;
40781;SDS011;26493;51.938;7.626;2023-12-20T04:39:19;12.50;;;4.93;;
40781;SDS011;26493;51.938;7.626;2023-12-20T04:41:45;7.95;;;3.83;;
40781;SDS011;26493;51.938;7.626;2023-12-20T04:44:12;7.25;;;3.80;;
40781;SDS011;26493;51.938;7.626;2023-12-20T04:46:38;6.95;;;3.45;;
40781;SDS011;26493;51.938;7.626;2023-12-20T04:49:04;10.82;;;5.03;;
40781;SDS011;26493;51.938;7.626;2023-12-20T04:51:32;17.60;;;6.28;;
40781;SDS011;26493;51.938;7.626;2023-12-20T04:53:59;13.27;;;5.82;;
40781;SDS011;26493;51.938;7.626;2023-12-20T04:56:25;16.98;;;5.95;;
40781;SDS011;26493;51.938;7.626;2023-12-20T04:58:51;9.38;;;5.05;;
40781;SDS011;26493;51.938;7.626;2023-12-20T05:01:17;10.23;;;5.10;;
40781;SDS011;26493;51.938;7.626;2023-12-20T05:03:43;8.48;;;4.18;;
40781;SDS011;26493;51.938;7.626;2023-12-20T05:06:09;7.40;;;3.85;;
40781;SDS011;26493;51.938;7.626;2023-12-20T05:08:35;10.45;;;4.35;;
40781;SDS011;26493;51.938;7.626;2023-12-20T05:11:01;7.93;;;4.22;;
40781;SDS011;26493;51.938;7.626;2023-12-20T05:13:27;11.32;;;4.97;;
40781;SDS011;26493;51.938;7.626;2023-12-20T05:15:53;8.00;;;4.05;;
40781;SDS011;26493;51.938;7.626;2023-12-20T05:18:20;13.57;;;5.25;;
40781;SDS011;26493;51.938;7.626;2023-12-20T05:20:46;11.70;;;5.80;;
40781;SDS011;26493;51.938;7.626;2023-12-20T05:23:12;19.20;;;6.38;;
40781;SDS011;26493;51.938;7.626;2023-12-20T05:25:38;9.57;;;5.40;;
40781;SDS011;26493;51.938;7.626;2023-12-20T05:28:05;10.52;;;5.55;;
40781;SDS011;26493;51.938;7.626;2023-12-20T05:30:31;7.90;;;4.70;;
40781;SDS011;26493;51.938;7.626;2023-12-20T05:32:57;12.52;;;6.30;;
40781;SDS011;26493;51.938;7.626;2023-12-20T05:35:23;17.77;;;6.78;;
40781;SDS011;26493;51.938;7.626;2023-12-20T05:37:49;11.35;;;6.28;;
40781;SDS011;26493;51.938;7.626;2023-12-20T05:40:15;14.07;;;7.15;;
40781;SDS011;26493;51.938;7.626;2023-12-20T05:42:41;15.68;;;7.18;;
40781;SDS011;26493;51.938;7.626;2023-12-20T05:45:08;20.20;;;7.30;;
40781;SDS011;26493;51.938;7.626;2023-12-20T05:47:35;13.10;;;6.72;;
40781;SDS011;26493;51.938;7.626;2023-12-20T05:50:01;13.45;;;6.60;;
40781;SDS011;26493;51.938;7.626;2023-12-20T05:52:27;8.20;;;5.03;;
40781;SDS011;26493;51.938;7.626;2023-12-20T05:54:53;8.80;;;5.38;;
40781;SDS011;26493;51.938;7.626;2023-12-20T05:57:20;14.57;;;5.90;;
40781;SDS011;26493;51.938;7.626;2023-12-20T05:59:48;11.48;;;5.95;;
40781;SDS011;26493;51.938;7.626;2023-12-20T06:02:14;16.92;;;6.80;;
40781;SDS011;26493;51.938;7.626;2023-12-20T06:04:41;12.68;;;6.57;;
40781;SDS011;26493;51.938;7.626;2023-12-20T06:07:08;17.15;;;8.40;;
40781;SDS011;26493;51.938;7.626;2023-12-20T06:09:34;14.30;;;5.85;;
40781;SDS011;26493;51.938;7.626;2023-12-20T06:12:00;15.85;;;6.07;;
40781;SDS011;26493;51.938;7.626;2023-12-20T06:14:26;11.15;;;5.30;;
40781;SDS011;26493;51.938;7.626;2023-12-20T06:16:52;20.05;;;7.65;;
40781;SDS011;26493;51.938;7.626;2023-12-20T06:19:18;16.92;;;6.28;;
40781;SDS011;26493;51.938;7.626;2023-12-20T06:21:44;8.52;;;4.78;;
40781;SDS011;26493;51.938;7.626;2023-12-20T06:24:10;10.98;;;5.95;;
40781;SDS011;26493;51.938;7.626;2023-12-20T06:26:36;9.60;;;4.97;;
40781;SDS011;26493;51.938;7.626;2023-12-20T06:29:02;16.85;;;6.13;;
40781;SDS011;26493;51.938;7.626;2023-12-20T06:31:28;23.70;;;7.03;;
40781;SDS011;26493;51.938;7.626;2023-12-20T06:33:54;12.05;;;5.43;;
40781;SDS011;26493;51.938;7.626;2023-12-20T06:36:23;12.63;;;7.30;;
40781;SDS011;26493;51.938;7.626;2023-12-20T06:38:49;24.25;;;8.38;;
40781;SDS011;26493;51.938;7.626;2023-12-20T06:41:15;9.15;;;4.82;;
40781;SDS011;26493;51.938;7.626;2023-12-20T06:43:41;18.38;;;5.63;;
40781;SDS011;26493;51.938;7.626;2023-12-20T06:46:07;7.43;;;4.35;;
40781;SDS011;26493;51.938;7.626;2023-12-20T06:48:34;17.67;;;6.40;;
40781;SDS011;26493;51.938;7.626;2023-12-20T06:51:00;7.57;;;4.50;;
40781;SDS011;26493;51.938;7.626;2023-12-20T06:53:29;14.93;;;5.70;;
40781;SDS011;26493;51.938;7.626;2023-12-20T06:55:55;9.50;;;5.72;;
40781;SDS011;26493;51.938;7.626;2023-12-20T06:58:21;8.40;;;4.90;;
40781;SDS011;26493;51.938;7.626;2023-12-20T07:00:47;8.43;;;5.10;;
40781;SDS011;26493;51.938;7.626;2023-12-20T07:03:13;7.95;;;4.50;;
40781;SDS011;26493;51.938;7.626;2023-12-20T07:05:39;13.43;;;5.95;;
40781;SDS011;26493;51.938;7.626;2023-12-20T07:08:06;12.20;;;6.03;;
40781;SDS011;26493;51.938;7.626;2023-12-20T07:10:32;8.88;;;4.53;;
40781;SDS011;26493;51.938;7.626;2023-12-20T07:12:58;8.60;;;5.13;;
40781;SDS011;26493;51.938;7.626;2023-12-20T07:15:24;15.55;;;6.35;;
40781;SDS011;26493;51.938;7.626;2023-12-20T07:17:50;11.88;;;6.57;;
40781;SDS011;26493;51.938;7.626;2023-12-20T07:20:16;8.00;;;4.50;;
40781;SDS011;26493;51.938;7.626;2023-12-20T07:22:42;9.05;;;4.65;;
40781;SDS011;26493;51.938;7.626;2023-12-20T07:25:08;13.48;;;5.32;;
40781;SDS011;26493;51.938;7.626;2023-12-20T07:27:35;16.70;;;6.68;;
40781;SDS011;26493;51.938;7.626;2023-12-20T07:30:01;15.57;;;6.43;;
40781;SDS011;26493;51.938;7.626;2023-12-20T07:32:27;13.98;;;5.43;;
40781;SDS011;26493;51.938;7.626;2023-12-20T07:34:53;10.05;;;5.85;;
40781;SDS011;26493;51.938;7.626;2023-12-20T07:37:19;9.88;;;4.60;;
40781;SDS011;26493;51.938;7.626;2023-12-20T07:39:46;7.68;;;4.20;;
40781;SDS011;26493;51.938;7.626;2023-12-20T07:42:12;10.45;;;4.95;;
40781;SDS011;26493;51.938;7.626;2023-12-20T07:44:38;7.20;;;4.25;;
40781;SDS011;26493;51.938;7.626;2023-12-20T07:47:04;7.32;;;4.13;;
40781;SDS011;26493;51.938;7.626;2023-12-20T07:49:30;9.75;;;5.13;;
40781;SDS011;26493;51.938;7.626;2023-12-20T07:51:56;14.80;;;6.25;;
40781;SDS011;26493;51.938;7.626;2023-12-20T07:54:23;8.55;;;4.80;;
40781;SDS011;26493;51.938;7.626;2023-12-20T07:56:48;8.55;;;4.85;;
40781;SDS011;26493;51.938;7.626;2023-12-20T07:59:14;9.98;;;4.47;;
40781;SDS011;26493;51.938;7.626;2023-12-20T08:01:40;7.22;;;4.50;;
40781;SDS011;26493;51.938;7.626;2023-12-20T08:04:07;10.30;;;4.63;;
40781;SDS011;26493;51.938;7.626;2023-12-20T08:06:33;11.88;;;5.63;;
40781;SDS011;26493;51.938;7.626;2023-12-20T08:08:59;10.93;;;5.63;;
40781;SDS011;26493;51.938;7.626;2023-12-20T08:11:25;8.68;;;4.88;;
40781;SDS011;26493;51.938;7.626;2023-12-20T08:13:51;10.35;;;4.47;;
40781;SDS011;26493;51.938;7.626;2023-12-20T08:16:17;12.15;;;5.85;;
40781;SDS011;26493;51.938;7.626;2023-12-20T08:18:44;7.70;;;4.30;;
40781;SDS011;26493;51.938;7.626;2023-12-20T08:21:10;43.85;;;5.85;;
40781;SDS011;26493;51.938;7.626;2023-12-20T08:23:36;7.60;;;4.35;;
40781;SDS011;26493;51.938;7.626;2023-12-20T08:26:06;11.40;;;6.20;;
40781;SDS011;26493;51.938;7.626;2023-12-20T08:28:32;9.70;;;4.93;;
40781;SDS011;26493;51.938;7.626;2023-12-20T08:30:58;21.40;;;7.55;;
40781;SDS011;26493;51.938;7.626;2023-12-20T08:33:24;16.70;;;6.57;;
40781;SDS011;26493;51.938;7.626;2023-12-20T08:35:50;24.55;;;7.25;;
40781;SDS011;26493;51.938;7.626;2023-12-20T08:38:16;11.65;;;8.00;;
40781;SDS011;26493;51.938;7.626;2023-12-20T08:40:43;6.72;;;3.90;;
40781;SDS011;26493;51.938;7.626;2023-12-20T08:43:09;8.15;;;4.65;;
40781;SDS011;26493;51.938;7.626;2023-12-20T08:45:35;11.38;;;5.18;;
40781;SDS011;26493;51.938;7.626;2023-12-20T08:48:01;7.75;;;4.50;;
40781;SDS011;26493;51.938;7.626;2023-12-20T08:50:28;10.52;;;5.25;;
40781;SDS011;26493;51.938;7.626;2023-12-20T08:52:54;16.67;;;7.45;;
40781;SDS011;26493;51.938;7.626;2023-12-20T08:55:20;7.35;;;4.20;;
40781;SDS011;26493;51.938;7.626;2023-12-20T08:57:46;22.92;;;7.82;;
40781;SDS011;26493;51.938;7.626;2023-12-20T09:00:12;7.45;;;4.30;;
40781;SDS011;26493;51.938;7.626;2023-12-20T09:02:38;15.00;;;6.97;;
40781;SDS011;26493;51.938;7.626;2023-12-20T09:05:05;8.50;;;4.70;;
40781;SDS011;26493;51.938;7.626;2023-12-20T09:07:31;22.95;;;7.15;;
40781;SDS011;26493;51.938;7.626;2023-12-20T09:09:57;10.98;;;4.95;;
40781;SDS011;26493;51.938;7.626;2023-12-20T09:12:24;12.88;;;5.30;;
40781;SDS011;26493;51.938;7.626;2023-12-20T09:14:50;13.07;;;6.25;;
40781;SDS011;26493;51.938;7.626;2023-12-20T09:17:16;12.20;;;7.03;;
40781;SDS011;26493;51.938;7.626;2023-12-20T09:19:43;10.93;;;6.10;;
40781;SDS011;26493;51.938;7.626;2023-12-20T09:22:09;11.98;;;5.13;;
40781;SDS011;26493;51.938;7.626;2023-12-20T09:24:35;15.65;;;6.90;;
40781;SDS011;26493;51.938;7.626;2023-12-20T09:27:02;11.40;;;6.65;;
40781;SDS011;26493;51.938;7.626;2023-12-20T09:29:28;19.20;;;6.28;;
40781;SDS011;26493;51.938;7.626;2023-12-20T09:31:54;11.25;;;5.35;;
40781;SDS011;26493;51.938;7.626;2023-12-20T09:34:22;16.52;;;7.28;;
40781;SDS011;26493;51.938;7.626;2023-12-20T09:36:48;13.15;;;6.32;;
40781;SDS011;26493;51.938;7.626;2023-12-20T09:39:14;15.75;;;7.70;;
40781;SDS011;26493;51.938;7.626;2023-12-20T09:41:44;20.73;;;8.75;;
40781;SDS011;26493;51.938;7.626;2023-12-20T09:44:15;11.73;;;5.38;;
40781;SDS011;26493;51.938;7.626;2023-12-20T09:46:44;22.08;;;7.97;;
40781;SDS011;26493;51.938;7.626;2023-12-20T09:49:11;8.48;;;4.70;;
40781;SDS011;26493;51.938;7.626;2023-12-20T09:51:37;23.05;;;6.90;;
40781;SDS011;26493;51.938;7.626;2023-12-20T09:54:03;10.30;;;5.43;;
40781;SDS011;26493;51.938;7.626;2023-12-20T09:56:29;10.77;;;6.25;;
40781;SDS011;26493;51.938;7.626;2023-12-20T09:58:55;17.00;;;7.80;;
40781;SDS011;26493;51.938;7.626;2023-12-20T10:01:22;16.40;;;7.32;;
40781;SDS011;26493;51.938;7.626;2023-12-20T10:03:50;17.00;;;6.25;;
40781;SDS011;26493;51.938;7.626;2023-12-20T10:06:16;15.68;;;7.28;;
40781;SDS011;26493;51.938;7.626;2023-12-20T10:08:42;9.35;;;5.75;;
40781;SDS011;26493;51.938;7.626;2023-12-20T10:11:08;9.35;;;5.60;;
40781;SDS011;26493;51.938;7.626;2023-12-20T10:13:38;21.77;;;7.75;;
40781;SDS011;26493;51.938;7.626;2023-12-20T10:16:05;9.77;;;5.40;;
40781;SDS011;26493;51.938;7.626;2023-12-20T10:18:32;22.63;;;7.90;;
40781;SDS011;26493;51.938;7.626;2023-12-20T10:20:58;14.48;;;7.68;;
40781;SDS011;26493;51.938;7.626;2023-12-20T10:23:24;18.48;;;8.52;;
40781;SDS011;26493;51.938;7.626;2023-12-20T10:25:57;9.98;;;5.75;;
40781;SDS011;26493;51.938;7.626;2023-12-20T10:28:23;9.57;;;5.40;;
40781;SDS011;26493;51.938;7.626;2023-12-20T10:30:52;14.68;;;7.45;;
40781;SDS011;26493;51.938;7.626;2023-12-20T10:33:26;12.77;;;7.53;;
40781;SDS011;26493;51.938;7.626;2023-12-20T10:35:53;14.35;;;8.10;;
40781;SDS011;26493;51.938;7.626;2023-12-20T10:38:19;12.18;;;7.28;;
40781;SDS011;26493;51.938;7.626;2023-12-20T10:40:45;13.13;;;7.25;;
40781;SDS011;26493;51.938;7.626;2023-12-20T10:43:12;14.70;;;10.30;;
40781;SDS011;26493;51.938;7.626;2023-12-20T10:45:38;15.10;;;11.00;;
40781;SDS011;26493;51.938;7.626;2023-12-20T10:48:04;15.13;;;11.55;;
40781;SDS011;26493;51.938;7.626;2023-12-20T10:50:30;17.15;;;12.85;;
40781;SDS011;26493;51.938;7.626;2023-12-20T10:52:59;19.38;;;11.00;;
40781;SDS011;26493;51.938;7.626;2023-12-20T10:55:26;15.82;;;12.15;;
40781;SDS011;26493;51.938;7.626;2023-12-20T10:57:52;17.73;;;12.00;;
40781;SDS011;26493;51.938;7.626;2023-12-20T11:00:20;14.63;;;11.50;;
40781;SDS011;26493;51.938;7.626;2023-12-20T11:02:47;14.80;;;11.85;;
40781;SDS011;26493;51.938;7.626;2023-12-20T11:07:43;15.40;;;11.70;;
40781;SDS011;26493;51.938;7.626;2023-12-20T11:10:16;20.35;;;17.92;;
40781;SDS011;26493;51.938;7.626;2023-12-20T11:12:55;22.38;;;20.20;;
40781;SDS011;26493;51.938;7.626;2023-12-20T11:15:23;25.33;;;21.10;;
40781;SDS011;26493;51.938;7.626;2023-12-20T11:17:55;22.33;;;20.02;;
40781;SDS011;26493;51.938;7.626;2023-12-20T11:20:34;20.67;;;18.77;;
40781;SDS011;26493;51.938;7.626;2023-12-20T11:23:01;23.38;;;19.20;;
40781;SDS011;26493;51.938;7.626;2023-12-20T11:25:27;20.17;;;18.27;;
40781;SDS011;26493;51.938;7.626;2023-12-20T11:28:11;20.52;;;18.40;;
40781;SDS011;26493;51.938;7.626;2023-12-20T11:30:56;19.67;;;17.65;;
40781;SDS011;26493;51.938;7.626;2023-12-20T11:33:45;22.55;;;15.52;;
40781;SDS011;26493;51.938;7.626;2023-12-20T11:36:18;18.83;;;15.40;;
40781;SDS011;26493;51.938;7.626;2023-12-20T11:38:57;16.25;;;13.75;;
40781;SDS011;26493;51.938;7.626;2023-12-20T11:41:25;15.30;;;12.88;;
40781;SDS011;26493;51.938;7.626;2023-12-20T11:43:55;15.23;;;12.77;;
40781;SDS011;26493;51.938;7.626;2023-12-20T11:46:21;17.33;;;12.95;;
40781;SDS011;26493;51.938;7.626;2023-12-20T11:48:47;16.75;;;13.77;;
40781;SDS011;26493;51.938;7.626;2023-12-20T11:51:13;15.10;;;12.77;;
40781;SDS011;26493;51.938;7.626;2023-12-20T11:53:40;18.77;;;14.77;;
40781;SDS011;26493;51.938;7.626;2023-12-20T11:56:07;15.57;;;13.10;;
40781;SDS011;26493;51.938;7.626;2023-12-20T11:58:33;15.40;;;13.10;;
40781;SDS011;26493;51.938;7.626;2023-12-20T12:01:00;19.00;;;15.10;;
40781;SDS011;26493;51.938;7.626;2023-12-20T12:03:27;16.25;;;14.23;;
40781;SDS011;26493;51.938;7.626;2023-12-20T12:05:53;15.20;;;13.35;;
40781;SDS011;26493;51.938;7.626;2023-12-20T12:08:19;15.77;;;13.77;;
40781;SDS011;26493;51.938;7.626;2023-12-20T12:10:45;21.33;;;16.10;;
40781;SDS011;26493;51.938;7.626;2023-12-20T12:13:11;24.15;;;15.35;;
40781;SDS011;26493;51.938;7.626;2023-12-20T12:15:39;16.70;;;14.90;;
40781;SDS011;26493;51.938;7.626;2023-12-20T12:18:07;21.52;;;15.98;;
40781;SDS011;26493;51.938;7.626;2023-12-20T12:20:33;18.60;;;15.73;;
40781;SDS011;26493;51.938;7.626;2023-12-20T12:25:25;16.17;;;14.38;;
40781;SDS011;26493;51.938;7.626;2023-12-20T12:27:52;24.17;;;14.85;;
40781;SDS011;26493;51.938;7.626;2023-12-20T12:30:18;19.27;;;15.38;;
40781;SDS011;26493;51.938;7.626;2023-12-20T12:32:44;16.02;;;13.50;;
40781;SDS011;26493;51.938;7.626;2023-12-20T12:35:10;15.00;;;12.40;;
40781;SDS011;26493;51.938;7.626;2023-12-20T12:37:37;16.23;;;11.85;;
40781;SDS011;26493;51.938;7.626;2023-12-20T12:40:09;14.80;;;10.80;;
40781;SDS011;26493;51.938;7.626;2023-12-20T12:45:01;15.35;;;9.40;;
40781;SDS011;26493;51.938;7.626;2023-12-20T12:47:27;18.45;;;10.00;;
40781;SDS011;26493;51.938;7.626;2023-12-20T12:49:53;14.10;;;8.00;;
40781;SDS011;26493;51.938;7.626;2023-12-20T12:52:19;15.05;;;6.90;;
40781;SDS011;26493;51.938;7.626;2023-12-20T12:54:46;14.18;;;8.00;;
40781;SDS011;26493;51.938;7.626;2023-12-20T12:57:12;11.10;;;6.00;;
40781;SDS011;26493;51.938;7.626;2023-12-20T12:59:38;10.48;;;6.32;;
40781;SDS011;26493;51.938;7.626;2023-12-20T13:02:04;11.02;;;6.15;;
40781;SDS011;26493;51.938;7.626;2023-12-20T13:04:30;12.93;;;7.18;;
40781;SDS011;26493;51.938;7.626;2023-12-20T13:06:56;13.32;;;7.28;;
40781;SDS011;26493;51.938;7.626;2023-12-20T13:09:22;11.40;;;5.70;;
40781;SDS011;26493;51.938;7.626;2023-12-20T13:11:48;12.68;;;6.07;;
40781;SDS011;26493;51.938;7.626;2023-12-20T13:14:14;21.73;;;8.45;;
40781;SDS011;26493;51.938;7.626;2023-12-20T13:16:41;13.40;;;8.00;;
40781;SDS011;26493;51.938;7.626;2023-12-20T13:19:07;20.67;;;7.50;;
40781;SDS011;26493;51.938;7.626;2023-12-20T13:21:35;18.30;;;7.30;;
40781;SDS011;26493;51.938;7.626;2023-12-20T13:24:01;10.98;;;6.25;;
40781;SDS011;26493;51.938;7.626;2023-12-20T13:26:27;10.98;;;6.05;;
40781;SDS011;26493;51.938;7.626;2023-12-20T13:28:53;12.40;;;6.38;;
40781;SDS011;26493;51.938;7.626;2023-12-20T13:31:19;10.48;;;5.85;;
40781;SDS011;26493;51.938;7.626;2023-12-20T13:33:45;11.98;;;5.85;;
40781;SDS011;26493;51.938;7.626;2023-12-20T13:36:12;10.23;;;5.68;;
40781;SDS011;26493;51.938;7.626;2023-12-20T13:38:38;13.63;;;7.60;;
40781;SDS011;26493;51.938;7.626;2023-12-20T13:41:04;21.23;;;6.68;;
40781;SDS011;26493;51.938;7.626;2023-12-20T13:43:31;10.40;;;5.70;;
40781;SDS011;26493;51.938;7.626;2023-12-20T13:45:58;10.93;;;6.32;;
40781;SDS011;26493;51.938;7.626;2023-12-20T13:48:24;19.67;;;5.93;;
40781;SDS011;26493;51.938;7.626;2023-12-20T13:50:50;10.05;;;5.88;;
40781;SDS011;26493;51.938;7.626;2023-12-20T13:53:16;14.35;;;6.18;;
40781;SDS011;26493;51.938;7.626;2023-12-20T13:55:42;13.73;;;7.22;;
40781;SDS011;26493;51.938;7.626;2023-12-20T13:58:08;16.15;;;6.95;;
40781;SDS011;26493;51.938;7.626;2023-12-20T14:00:37;11.23;;;6.07;;
40781;SDS011;26493;51.938;7.626;2023-12-20T14:03:03;9.02;;;5.53;;
40781;SDS011;26493;51.938;7.626;2023-12-20T14:05:30;8.45;;;4.90;;
40781;SDS011;26493;51.938;7.626;2023-12-20T14:07:56;9.13;;;5.20;;
40781;SDS011;26493;51.938;7.626;2023-12-20T14:10:22;11.45;;;6.45;;
40781;SDS011;26493;51.938;7.626;2023-12-20T14:12:51;8.73;;;5.05;;
40781;SDS011;26493;51.938;7.626;2023-12-20T14:15:17;16.92;;;5.95;;
40781;SDS011;26493;51.938;7.626;2023-12-20T14:17:43;9.02;;;5.30;;
40781;SDS011;26493;51.938;7.626;2023-12-20T14:20:09;13.25;;;7.07;;
40781;SDS011;26493;51.938;7.626;2023-12-20T14:25:04;21.27;;;6.70;;
40781;SDS011;26493;51.938;7.626;2023-12-20T14:27:31;12.77;;;5.75;;
40781;SDS011;26493;51.938;7.626;2023-12-20T14:29:57;18.52;;;8.45;;
40781;SDS011;26493;51.938;7.626;2023-12-20T14:32:23;9.43;;;5.38;;
40781;SDS011;26493;51.938;7.626;2023-12-20T14:34:51;9.85;;;5.32;;
40781;SDS011;26493;51.938;7.626;2023-12-20T14:37:17;13.75;;;7.65;;
40781;SDS011;26493;51.938;7.626;2023-12-20T14:39:43;9.18;;;5.55;;
40781;SDS011;26493;51.938;7.626;2023-12-20T14:42:10;12.43;;;6.85;;
40781;SDS011;26493;51.938;7.626;2023-12-20T14:44:39;8.68;;;4.85;;